Time;durP1;ratioP1;P1;durP2;ratioP2;P2;SDS_P1;SDS_P2;PMS_P1;PMS_P2;Temp;Humidity;BMP_temperature;BMP_pressure;BME280_temperature;BME280_humidity;BME280_pressure;Samples;Min_cycle;Max_cycle;Signal;HPM_P1;HPM_P2
2023/01/23 00:01:31;;;;;;;17.05;10.23;;;0.40;99.90;;;-0.06;100.00;98974.53;4945112;28;20146;-72
2023/01/23 00:03:59;;;;;;;14.52;10.13;;;0.40;99.90;;;-0.07;100.00;98972.81;4946645;28;20164;-71
2023/01/23 00:06:27;;;;;;;19.27;11.05;;;0.50;99.90;;;-0.04;100.00;98972.03;4941990;28;20434;-71
2023/01/23 00:08:55;;;;;;;15.07;10.30;;;0.40;99.90;;;-0.11;100.00;98975.28;4974281;28;20513;-71
2023/01/23 00:11:31;;;;;;;17.27;11.00;;;0.40;99.90;;;-0.06;100.00;98986.44;4948125;28;20138;-72
2023/01/23 00:14:00;;;;;;;14.95;9.32;;;0.40;99.90;;;-0.02;100.00;98972.91;4947485;28;20047;-72
2023/01/23 00:16:31;;;;;;;18.77;11.00;;;0.40;99.90;;;-0.02;100.00;98975.47;4934630;28;20047;-72
2023/01/23 00:18:58;;;;;;;14.05;9.18;;;0.50;99.90;;;-0.08;100.00;98973.63;4947950;28;20050;-71
2023/01/23 00:21:28;;;;;;;17.17;10.82;;;0.50;99.90;;;-0.12;100.00;98968.41;4962188;28;20073;-72
2023/01/23 00:23:57;;;;;;;16.95;11.52;;;0.40;99.90;;;-0.05;100.00;98973.69;4976432;28;20057;-72
2023/01/23 00:26:27;;;;;;;19.08;11.40;;;0.40;99.90;;;-0.14;100.00;98965.81;4933805;28;20378;-72
2023/01/23 00:28:55;;;;;;;13.98;8.70;;;0.30;99.90;;;-0.13;100.00;98966.72;4946384;28;20201;-72
2023/01/23 00:31:26;;;;;;;14.73;9.35;;;0.40;99.90;;;-0.26;100.00;98970.66;4950198;28;20177;-72
2023/01/23 00:34:03;;;;;;;12.60;7.47;;;0.30;99.90;;;-0.23;100.00;98966.50;4964512;28;20047;-72
2023/01/23 00:36:35;;;;;;;;;;;0.30;99.90;;;-0.19;100.00;98969.97;4933389;28;20051;-72
2023/01/23 00:39:06;;;;;;;14.65;8.98;;;0.30;99.90;;;-0.18;100.00;98970.81;4979590;28;19929;-72
2023/01/23 00:41:34;;;;;;;13.43;8.77;;;0.30;99.90;;;-0.27;100.00;98971.50;4947684;28;20106;-72
2023/01/23 00:44:02;;;;;;;15.95;8.95;;;0.30;99.90;;;-0.19;100.00;98974.22;4974109;28;20137;-72
2023/01/23 00:46:29;;;;;;;13.00;8.73;;;0.40;99.90;;;-0.20;100.00;98970.81;4944165;28;20065;-72
2023/01/23 00:48:56;;;;;;;14.75;9.05;;;0.40;99.90;;;-0.18;100.00;98971.72;4960199;28;20518;-71
2023/01/23 00:51:23;;;;;;;12.52;7.40;;;0.30;99.90;;;-0.20;100.00;98977.63;4975729;28;20051;-71
2023/01/23 00:53:50;;;;;;;10.98;7.13;;;0.40;99.90;;;-0.13;100.00;98982.88;4947488;28;20129;-71
2023/01/23 00:56:17;;;;;;;12.48;7.78;;;0.40;99.90;;;-0.15;100.00;98986.22;4962580;28;20071;-72
2023/01/23 00:58:44;;;;;;;16.50;8.48;;;0.40;99.90;;;-0.11;100.00;98986.34;4959784;28;20097;-72
2023/01/23 01:01:12;;;;;;;11.15;7.60;;;0.40;99.90;;;-0.12;100.00;98989.69;4961863;28;20648;-72
2023/01/23 01:03:40;;;;;;;13.07;8.55;;;0.50;99.90;;;-0.08;100.00;98983.84;4969837;28;20127;-71
2023/01/23 01:06:07;;;;;;;13.48;8.52;;;0.40;99.90;;;-0.10;100.00;98979.53;4947480;28;20069;-71
2023/01/23 01:08:35;;;;;;;13.30;7.93;;;0.40;99.90;;;-0.11;100.00;98980.38;4945582;28;20055;-71
2023/01/23 01:11:03;;;;;;;12.23;7.53;;;0.40;99.90;;;-0.14;100.00;98976.03;4960917;28;20047;-71
2023/01/23 01:13:30;;;;;;;10.15;7.13;;;0.40;99.90;;;-0.08;100.00;98981.28;4974369;28;20075;-71
2023/01/23 01:16:00;;;;;;;14.40;8.63;;;0.50;99.90;;;-0.09;100.00;98979.56;4971473;28;20055;-71
2023/01/23 01:18:31;;;;;;;15.82;9.20;;;0.40;99.90;;;-0.10;100.00;98980.38;4945871;28;20053;-71
2023/01/23 01:20:59;;;;;;;14.07;8.35;;;0.40;99.90;;;-0.09;100.00;98994.00;4943921;28;20051;-72
2023/01/23 01:23:28;;;;;;;11.73;7.75;;;0.50;99.90;;;-0.12;100.00;98993.94;4973171;28;20059;-72
2023/01/23 01:25:59;;;;;;;16.10;9.25;;;0.50;99.90;;;-0.12;100.00;98986.28;4958209;28;20050;-71
2023/01/23 01:28:29;;;;;;;12.13;7.88;;;0.30;99.90;;;-0.15;100.00;98988.78;4942444;28;20501;-71
2023/01/23 01:30:57;;;;;;;16.58;8.02;;;0.40;99.90;;;-0.08;100.00;98988.09;4944873;28;20529;-71
2023/01/23 01:33:24;;;;;;;13.95;8.13;;;0.40;99.90;;;-0.13;100.00;98989.69;4974469;28;20050;-71
2023/01/23 01:35:51;;;;;;;16.70;9.77;;;0.40;99.90;;;-0.28;100.00;98983.38;4960572;28;20121;-71
2023/01/23 01:38:18;;;;;;;12.68;7.63;;;0.30;99.90;;;-0.18;100.00;98994.69;4951009;28;20062;-71
2023/01/23 01:40:45;;;;;;;13.52;8.18;;;0.40;99.90;;;-0.16;100.00;98993.03;4964947;28;20051;-71
2023/01/23 01:43:25;;;;;;;12.40;8.07;;;0.30;99.90;;;-0.17;100.00;98993.84;4943947;28;20520;-71
2023/01/23 01:46:33;;;;;;;13.25;8.65;;;0.40;99.90;;;-0.20;100.00;98995.47;4962483;28;20069;-71
2023/01/23 01:49:14;;;;;;;15.70;9.20;;;0.30;99.90;;;-0.25;100.00;98991.13;4944064;28;20073;-72
2023/01/23 01:51:50;;;;;;;14.25;8.27;;;0.30;99.90;;;-0.25;100.00;98991.13;4935897;28;20117;-72
2023/01/23 01:55:01;;;;;;;12.13;7.85;;;0.30;99.90;;;-0.29;100.00;98989.31;4960458;28;20510;-71
2023/01/23 01:57:37;;;;;;;13.18;8.40;;;0.40;99.90;;;-0.20;100.00;98996.34;4947312;28;20289;-71
2023/01/23 02:00:15;;;;;;;16.17;9.40;;;0.30;99.90;;;-0.26;100.00;99001.28;4948356;28;20055;-71
2023/01/23 02:03:00;;;;;;;16.23;9.63;;;0.30;99.90;;;-0.28;100.00;98992.72;4975711;28;20529;-71
2023/01/23 02:05:35;;;;;;;15.50;9.60;;;0.30;99.90;;;-0.25;100.00;99005.53;4962281;28;20070;-71
2023/01/23 02:08:16;;;;;;;13.23;8.45;;;0.20;99.90;;;-0.25;100.00;98991.13;4976798;28;20642;-71
2023/01/23 02:10:44;;;;;;;12.88;8.60;;;0.30;99.90;;;-0.31;100.00;98998.63;4962780;28;20401;-72
2023/01/23 02:13:27;;;;;;;17.42;9.43;;;0.20;99.90;;;-0.35;100.00;98999.38;4961415;28;20066;-71
2023/01/23 02:15:54;;;;;;;15.77;9.52;;;0.20;99.90;;;-0.30;100.00;99002.88;4963350;28;20046;-71
2023/01/23 02:18:21;;;;;;;18.48;9.60;;;0.30;99.90;;;-0.40;100.00;99010.31;4961527;28;20149;-71
2023/01/23 02:20:52;;;;;;;16.13;9.18;;;0.20;99.90;;;-0.40;100.00;99003.50;4978520;28;20125;-71
2023/01/23 02:23:43;;;;;;;13.65;8.68;;;0.10;99.90;;;-0.32;100.00;99013.88;4949902;28;20126;-71
2023/01/23 02:26:21;;;;;;;14.93;8.85;;;0.20;99.90;;;-0.34;100.00;99018.97;4945531;28;20051;-71
2023/01/23 02:29:06;;;;;;;15.90;8.95;;;0.20;99.90;;;-0.34;100.00;99013.00;4951158;28;20172;-71
2023/01/23 02:31:34;;;;;;;15.40;9.80;;;0.20;99.90;;;-0.25;100.00;99010.66;4963965;28;20047;-71
2023/01/23 02:34:01;;;;;;;15.50;9.93;;;0.20;99.90;;;-0.16;100.00;99013.44;4963406;28;20042;-71
2023/01/23 02:36:33;;;;;;;14.65;9.32;;;0.30;99.90;;;-0.28;100.00;99011.44;4962142;28;20055;-71
2023/01/23 02:39:16;;;;;;;16.23;9.05;;;0.20;99.90;;;-0.28;100.00;99011.44;4947312;28;20058;-71
2023/01/23 02:41:45;;;;;;;;;;;0.20;99.90;;;-0.29;100.00;99013.97;4947269;28;20050;-71
2023/01/23 02:44:27;;;;;;;16.15;9.15;;;0.20;99.90;;;-0.38;100.00;99001.88;4948946;28;19926;-71
2023/01/23 02:46:57;;;;;;;16.75;8.77;;;0.10;99.90;;;-0.40;100.00;99005.22;4948487;28;20104;-71
2023/01/23 02:49:24;;;;;;;15.27;9.00;;;0.20;99.90;;;-0.25;100.00;99010.66;4966025;28;20047;-71
2023/01/23 02:51:53;;;;;;;14.40;9.43;;;0.20;99.90;;;-0.35;100.00;99012.13;4948497;28;20051;-71
2023/01/23 02:54:21;;;;;;;14.57;8.38;;;0.20;99.90;;;-0.29;100.00;99011.44;4966793;28;20381;-71
2023/01/23 02:56:49;;;;;;;13.18;8.73;;;0.20;99.90;;;-0.31;100.00;99013.94;4967440;28;20050;-70
2023/01/23 03:02:04;;;;;;;15.07;9.48;;;0.20;99.90;;;-0.47;100.00;99012.69;4946340;28;20059;-71
2023/01/23 03:04:34;;;;;;;16.45;9.88;;;0.20;99.90;;;-0.38;100.00;99014.63;4947378;28;20105;-71
2023/01/23 03:07:01;;;;;;;17.58;10.15;;;0.20;99.90;;;-0.39;100.00;99024.78;4960160;28;20133;-71
2023/01/23 03:09:28;;;;;;;13.23;7.97;;;0.20;99.90;;;-0.27;100.00;99025.94;4948389;28;20143;-70
2023/01/23 03:11:56;;;;;;;13.70;7.95;;;0.20;99.90;;;-0.34;100.00;99025.75;4934336;28;20043;-70
2023/01/23 03:14:23;;;;;;;14.55;9.23;;;0.30;99.90;;;-0.31;100.00;99026.69;4962099;28;20089;-71
2023/01/23 03:16:52;;;;;;;14.65;7.90;;;0.20;99.90;;;-0.32;100.00;99027.53;4945552;28;20106;-71
2023/01/23 03:19:23;;;;;;;15.40;8.95;;;0.20;99.90;;;-0.26;100.00;99026.81;4945029;28;20432;-71
2023/01/23 03:21:51;;;;;;;13.43;8.85;;;0.20;99.90;;;-0.26;100.00;99020.00;4963921;28;20050;-70
2023/01/23 03:24:20;;;;;;;12.23;8.05;;;0.20;99.90;;;-0.32;100.00;99016.44;4947285;28;20046;-71
2023/01/23 03:26:49;;;;;;;15.48;8.80;;;0.30;99.90;;;-0.30;100.00;99015.66;4958372;28;20051;-71
2023/01/23 03:32:08;;;;;;;16.42;10.00;;;0.30;99.90;;;-0.40;100.00;99021.38;4950472;28;20129;-71
2023/01/23 03:34:36;;;;;;;14.02;8.95;;;0.10;99.90;;;-0.30;100.00;99023.31;4964447;28;20139;-71
2023/01/23 03:37:06;;;;;;;15.93;8.63;;;0.20;99.90;;;-0.28;100.00;99024.19;4932172;28;20051;-70
2023/01/23 03:42:20;;;;;;;13.77;7.57;;;0.30;99.90;;;-0.16;100.00;99033.88;4953300;28;20061;-71
2023/01/23 03:44:48;;;;;;;12.70;8.63;;;0.40;99.90;;;-0.19;100.00;99031.22;4943936;28;20061;-71
2023/01/23 03:47:15;;;;;;;14.05;9.02;;;0.30;99.90;;;-0.24;100.00;99027.69;4976820;28;20051;-71
2023/01/23 03:49:42;;;;;;;13.25;8.65;;;0.30;99.90;;;-0.23;100.00;99026.88;4961197;28;20042;-70
2023/01/23 03:52:09;;;;;;;12.50;8.25;;;0.30;99.90;;;-0.26;100.00;99019.16;4961527;28;20130;-71
2023/01/23 03:54:36;;;;;;;16.23;9.40;;;0.30;99.90;;;-0.23;100.00;99021.75;4944886;28;20183;-71
2023/01/23 03:57:03;;;;;;;14.73;8.48;;;0.20;99.90;;;-0.35;100.00;99018.94;4962455;28;20047;-71
2023/01/23 03:59:30;;;;;;;15.57;9.05;;;0.20;99.90;;;-0.28;100.00;99019.09;4973542;28;20058;-70
2023/01/23 04:01:59;;;;;;;15.55;9.15;;;0.20;99.90;;;-0.31;100.00;99015.63;4959780;28;20055;-71
2023/01/23 04:04:26;;;;;;;14.38;8.82;;;0.20;99.90;;;-0.37;100.00;99012.91;4959043;28;20042;-70
2023/01/23 04:06:53;;;;;;;16.23;9.00;;;0.20;99.90;;;-0.33;100.00;99020.69;4943875;28;20061;-71
2023/01/23 04:09:24;;;;;;;17.48;10.88;;;0.20;99.90;;;-0.48;100.00;99022.84;4957860;28;20055;-70
2023/01/23 04:11:55;;;;;;;15.95;9.38;;;0.10;99.90;;;-0.38;100.00;99019.72;4957884;28;20043;-71
2023/01/23 04:14:24;;;;;;;13.82;9.23;;;0.10;99.90;;;-0.38;100.00;99021.41;4947693;28;20059;-71
2023/01/23 04:16:52;;;;;;;15.55;9.05;;;0.10;99.90;;;-0.40;100.00;99020.50;4947256;28;20069;-71
2023/01/23 04:19:20;;;;;;;14.05;8.88;;;0.10;99.90;;;-0.32;100.00;99034.28;4948429;28;20047;-71
2023/01/23 04:21:48;;;;;;;13.57;8.88;;;0.20;99.90;;;-0.18;100.00;99034.63;4962191;28;20050;-71
2023/01/23 04:24:16;;;;;;;13.70;8.05;;;0.20;99.90;;;-0.16;100.00;99033.88;4959319;28;20066;-71
2023/01/23 04:26:44;;;;;;;15.85;8.88;;;0.30;99.90;;;-0.26;100.00;99032.75;4944417;28;20054;-71
2023/01/23 04:29:12;;;;;;;14.45;8.88;;;0.20;99.90;;;-0.17;100.00;99023.59;4943085;28;20055;-71
2023/01/23 04:31:40;;;;;;;13.30;8.23;;;0.20;99.90;;;-0.16;100.00;99028.75;4947128;28;20046;-71
2023/01/23 04:34:07;;;;;;;16.05;9.13;;;0.30;99.90;;;-0.32;100.00;99017.31;4958750;28;20055;-70
2023/01/23 04:36:34;;;;;;;16.90;9.85;;;0.20;99.90;;;-0.35;100.00;99019.78;4972524;28;20054;-70
2023/01/23 04:39:03;;;;;;;14.05;8.65;;;0.20;99.90;;;-0.30;100.00;99023.31;4960582;28;20130;-70
2023/01/23 04:41:31;;;;;;;16.25;9.85;;;0.20;99.90;;;-0.41;100.00;99029.88;4944368;28;20066;-71
2023/01/23 04:46:54;;;;;;;14.48;9.23;;;0.30;99.90;;;-0.32;100.00;99021.53;4947849;28;20425;-70
2023/01/23 04:49:23;;;;;;;14.55;8.30;;;0.20;99.90;;;-0.34;100.00;99008.78;4956657;28;20102;-70
2023/01/23 04:51:51;;;;;;;13.88;8.70;;;0.20;99.90;;;-0.46;100.00;99004.25;4942865;28;20047;-70
2023/01/23 04:54:20;;;;;;;15.07;8.63;;;0.10;99.90;;;-0.42;100.00;99003.47;4945512;28;20121;-70
2023/01/23 04:56:48;;;;;;;15.15;8.70;;;0.20;99.90;;;-0.40;100.00;99002.66;4944446;28;20130;-70
2023/01/23 04:59:16;;;;;;;15.38;9.20;;;0.10;99.90;;;-0.33;100.00;99001.97;4942720;28;20101;-70
2023/01/23 05:01:43;;;;;;;15.90;9.75;;;0.10;99.90;;;-0.36;100.00;99004.47;4945427;28;20558;-70
2023/01/23 05:04:12;;;;;;;17.40;9.15;;;0.20;99.90;;;-0.41;100.00;99001.81;4961510;28;20062;-70
2023/01/23 05:06:39;;;;;;;15.45;9.27;;;0.10;99.90;;;-0.48;100.00;99015.19;4958015;28;20055;-70
2023/01/23 05:09:06;;;;;;;13.15;8.27;;;0.10;99.90;;;-0.40;100.00;99010.31;4944856;28;20417;-70
2023/01/23 05:11:33;;;;;;;13.93;8.80;;;0.10;99.90;;;-0.41;100.00;99017.09;4949788;28;20055;-70
2023/01/23 05:14:00;;;;;;;15.13;9.73;;;0.10;99.90;;;-0.47;100.00;99020.34;4962512;28;20047;-70
2023/01/23 05:16:28;;;;;;;16.27;9.85;;;0.10;99.90;;;-0.42;100.00;99025.56;4961357;28;20050;-70
2023/01/23 05:18:55;;;;;;;14.68;9.18;;;0.10;99.90;;;-0.32;100.00;99026.66;4964065;28;20398;-70
2023/01/23 05:21:22;;;;;;;12.98;8.20;;;0.10;99.90;;;-0.32;100.00;99032.63;4964401;28;20088;-70
2023/01/23 05:23:49;;;;;;;15.32;9.00;;;0.20;99.90;;;-0.36;100.00;99041.03;4947892;28;20482;-70
2023/01/23 05:26:16;;;;;;;18.40;10.55;;;0.20;99.90;;;-0.52;100.00;99041.47;4949477;28;20193;-70
2023/01/23 05:28:45;;;;;;;14.18;8.73;;;0.10;99.90;;;-0.42;100.00;99051.94;4951366;28;20047;-70
2023/01/23 05:31:13;;;;;;;12.30;7.55;;;0.10;99.90;;;-0.36;100.00;99052.94;4947449;28;20058;-70
2023/01/23 05:33:40;;;;;;;14.95;9.15;;;0.20;99.90;;;-0.42;100.00;99048.53;4964942;28;20047;-70
2023/01/23 05:36:07;;;;;;;17.13;8.60;;;0.10;99.90;;;-0.39;100.00;99052.84;4953166;28;20043;-70
2023/01/23 05:38:34;;;;;;;13.05;8.30;;;0.10;99.90;;;-0.43;100.00;99059.56;4949324;28;20101;-70
2023/01/23 05:41:02;;;;;;;12.93;7.93;;;0.10;99.90;;;-0.44;100.00;99056.13;4967196;28;20137;-70
2023/01/23 05:43:29;;;;;;;13.38;7.80;;;0.10;99.90;;;-0.45;100.00;99054.41;4947447;28;20050;-70
2023/01/23 05:46:00;;;;;;;13.27;7.93;;;0.10;99.90;;;-0.51;100.00;99054.25;4964006;28;20069;-70
2023/01/23 05:48:27;;;;;;;14.73;8.43;;;0.10;99.90;;;-0.40;100.00;99053.69;4975384;28;20043;-70
2023/01/23 05:50:54;;;;;;;13.40;8.25;;;0.10;99.90;;;-0.51;100.00;99049.16;4964375;28;20098;-70
2023/01/23 05:53:22;;;;;;;13.50;8.13;;;0.10;99.90;;;-0.35;100.00;99049.53;4949858;28;20157;-70
2023/01/23 05:55:49;;;;;;;13.45;8.13;;;0.10;99.90;;;-0.41;100.00;99055.38;4961058;28;20051;-70
2023/01/23 05:58:18;;;;;;;12.10;6.63;;;0.10;99.90;;;-0.40;100.00;99062.19;4950454;28;20066;-70
2023/01/23 06:00:46;;;;;;;12.95;7.40;;;0.10;99.90;;;-0.37;100.00;99051.19;4964452;28;20145;-70
2023/01/23 06:03:13;;;;;;;11.82;7.25;;;0.20;99.90;;;-0.40;100.00;99053.69;4948831;28;20477;-70
2023/01/23 06:05:40;;;;;;;14.35;8.15;;;0.10;99.90;;;-0.39;100.00;99052.84;4944998;28;20466;-70
2023/01/23 06:08:07;;;;;;;14.13;8.63;;;0.20;99.90;;;-0.44;100.00;99055.28;4945985;28;20221;-70
2023/01/23 06:10:38;;;;;;;14.68;8.80;;;0.10;99.90;;;-0.36;100.00;99055.50;4962711;28;20062;-70
2023/01/23 06:13:05;;;;;;;10.95;7.43;;;0.20;99.90;;;-0.31;100.00;99066.66;4947101;28;20042;-70
2023/01/23 06:15:32;;;;;;;14.38;8.73;;;0.30;99.90;;;-0.28;100.00;99066.72;4958784;28;20051;-70
2023/01/23 06:17:59;;;;;;;13.25;7.93;;;0.20;99.90;;;-0.32;100.00;99063.25;4947843;28;20086;-70
2023/01/23 06:20:26;;;;;;;14.68;8.23;;;0.30;99.90;;;-0.29;100.00;99062.47;4959906;28;20126;-70
2023/01/23 06:22:54;;;;;;;12.07;7.78;;;0.30;99.90;;;-0.31;100.00;99064.09;4960737;28;20047;-70
2023/01/23 06:25:21;;;;;;;14.02;8.07;;;0.20;99.90;;;-0.40;100.00;99061.31;4960776;28;20047;-70
2023/01/23 06:27:48;;;;;;;12.55;7.60;;;0.20;99.90;;;-0.39;100.00;99063.03;4959830;28;20369;-70
2023/01/23 06:30:16;;;;;;;12.60;8.02;;;0.20;99.90;;;-0.33;100.00;99064.06;4959939;28;20055;-70
2023/01/23 06:32:43;;;;;;;15.15;8.07;;;0.20;99.90;;;-0.35;100.00;99065.72;4961291;28;20457;-70
2023/01/23 06:35:10;;;;;;;12.45;7.38;;;0.20;99.90;;;-0.27;100.00;99076.97;4960511;28;20061;-70
2023/01/23 06:37:37;;;;;;;13.93;7.97;;;0.20;99.90;;;-0.47;100.00;99073.91;4962747;28;20047;-70
2023/01/23 06:40:05;;;;;;;13.95;8.65;;;0.20;99.90;;;-0.40;100.00;99074.94;4946462;28;20067;-70
2023/01/23 06:42:32;;;;;;;16.80;8.93;;;0.10;99.90;;;-0.50;100.00;99080.63;4960587;28;20065;-70
2023/01/23 06:44:59;;;;;;;13.52;8.18;;;0.10;99.90;;;-0.49;100.00;99080.66;4944480;28;20114;-70
2023/01/23 06:47:26;;;;;;;15.07;8.85;;;0.10;99.90;;;-0.43;100.00;99083.38;4962294;28;20055;-70
2023/01/23 06:49:53;;;;;;;11.52;7.72;;;0.10;99.90;;;-0.47;100.00;99080.72;4949198;28;20051;-70
2023/01/23 06:52:20;;;;;;;15.68;9.27;;;0.10;99.90;;;-0.56;100.00;99081.34;4936948;28;20561;-70
2023/01/23 06:54:47;;;;;;;18.70;8.32;;;0.00;99.90;;;-0.52;100.00;99084.84;4962540;28;20047;-70
2023/01/23 06:57:15;;;;;;;14.40;8.63;;;0.10;99.90;;;-0.50;100.00;99084.06;4943888;28;20478;-70
2023/01/23 06:59:42;;;;;;;16.52;9.05;;;0.10;99.90;;;-0.54;100.00;99081.38;4960691;28;20074;-70
2023/01/23 07:02:10;;;;;;;15.55;9.50;;;0.00;99.90;;;-0.57;100.00;99088.94;4960770;28;20050;-70
2023/01/23 07:04:38;;;;;;;13.27;8.23;;;0.00;99.90;;;-0.55;100.00;99082.19;4972268;28;20912;-70
2023/01/23 07:07:05;;;;;;;17.25;10.15;;;0.10;99.90;;;-0.54;100.00;99096.69;4959019;28;20079;-70
2023/01/23 07:09:33;;;;;;;16.38;9.35;;;0.00;99.90;;;-0.52;100.00;99092.50;4957747;28;20050;-70
2023/01/23 07:12:00;;;;;;;17.05;9.68;;;0.10;99.90;;;-0.39;100.00;99104.72;4939876;28;20074;-70
2023/01/23 07:14:27;;;;;;;15.55;9.35;;;0.10;99.90;;;-0.57;100.00;99106.78;4947972;28;20047;-70
2023/01/23 07:16:54;;;;;;;17.05;9.40;;;0.10;99.90;;;-0.54;100.00;99112.84;4945146;28;20051;-70
2023/01/23 07:19:21;;;;;;;17.10;9.30;;;0.10;99.90;;;-0.43;100.00;99108.91;4945678;28;20047;-70
2023/01/23 07:21:48;;;;;;;17.08;10.43;;;0.10;99.90;;;-0.47;100.00;99112.19;4933081;28;20062;-71
2023/01/23 07:24:15;;;;;;;20.35;10.90;;;0.10;99.90;;;-0.41;100.00;99114.03;4931944;28;20386;-71
2023/01/23 07:26:42;;;;;;;16.75;9.75;;;0.10;99.90;;;-0.47;100.00;99107.09;4931758;28;20454;-70
2023/01/23 07:29:09;;;;;;;17.90;10.77;;;0.10;99.90;;;-0.45;100.00;99113.09;4971961;28;20062;-70
2023/01/23 07:31:37;;;;;;;15.65;8.95;;;0.10;99.90;;;-0.39;100.00;99131.91;4946413;28;20062;-70
2023/01/23 07:34:04;;;;;;;16.70;9.93;;;0.20;99.90;;;-0.40;100.00;99132.75;4942988;28;20047;-70
2023/01/23 07:36:31;;;;;;;18.40;10.57;;;0.20;99.90;;;-0.37;100.00;99140.47;4949720;28;20051;-70
2023/01/23 07:38:58;;;;;;;19.63;11.50;;;0.20;99.90;;;-0.43;100.00;99139.50;4974775;28;20046;-70
2023/01/23 07:41:26;;;;;;;16.05;9.48;;;0.20;99.90;;;-0.39;100.00;99152.34;4948215;28;20050;-70
2023/01/23 07:43:53;;;;;;;17.25;10.20;;;0.10;99.90;;;-0.27;100.00;99165.44;4947696;28;20058;-70
2023/01/23 07:46:20;;;;;;;18.77;10.15;;;0.20;99.90;;;-0.30;100.00;99161.09;4959215;28;20057;-70
2023/01/23 07:48:47;;;;;;;20.00;11.60;;;0.30;99.90;;;-0.28;100.00;99163.69;4940457;28;20050;-70
2023/01/23 07:51:14;;;;;;;18.08;10.73;;;0.20;99.90;;;-0.28;100.00;99164.53;4959012;28;20046;-70
2023/01/23 07:53:41;;;;;;;18.98;10.38;;;0.20;99.90;;;-0.21;100.00;99173.22;4959459;28;20049;-70
2023/01/23 07:56:08;;;;;;;16.85;10.55;;;0.30;99.90;;;-0.32;100.00;99172.97;4932513;28;20070;-70
2023/01/23 07:58:35;;;;;;;20.15;12.05;;;0.30;99.90;;;-0.25;100.00;99171.41;4943273;28;20042;-70
2023/01/23 08:01:10;;;;;;;16.85;10.38;;;0.40;99.90;;;-0.24;100.00;99178.25;4943759;28;20074;-70
2023/01/23 08:03:37;;;;;;;16.92;9.98;;;0.30;99.90;;;-0.07;100.00;99179.56;4974628;28;20094;-70
2023/01/23 08:06:04;;;;;;;16.95;9.82;;;0.40;99.90;;;0.05;100.00;99179.00;4928226;28;20047;-70
2023/01/23 08:08:31;;;;;;;18.48;10.68;;;0.50;99.90;;;-0.02;100.00;99180.53;4960503;28;20047;-70
2023/01/23 08:11:09;;;;;;;17.52;10.90;;;0.50;99.90;;;-0.06;100.00;99176.19;4955909;28;20051;-70
2023/01/23 08:13:36;;;;;;;17.58;9.93;;;0.40;99.90;;;0.09;100.00;99183.38;4942468;28;20151;-70
2023/01/23 08:16:04;;;;;;;15.68;10.38;;;0.50;99.90;;;0.19;100.00;99179.34;4977780;28;20054;-70
2023/01/23 08:18:32;;;;;;;20.52;11.65;;;0.60;99.90;;;0.04;100.00;99174.72;4942539;28;20526;-70
2023/01/23 08:21:02;;;;;;;18.13;10.48;;;0.60;99.90;;;-0.10;100.00;99169.25;4961145;28;20077;-70
2023/01/23 08:23:32;;;;;;;17.55;10.82;;;0.50;99.90;;;-0.04;100.00;99161.75;4976626;28;20059;-70
2023/01/23 08:26:04;;;;;;;19.02;11.48;;;0.60;99.90;;;-0.08;100.00;99162.50;4930395;28;20143;-70
2023/01/23 08:28:31;;;;;;;19.65;10.10;;;0.50;99.90;;;0.17;100.00;99163.97;4931657;28;20051;-70
2023/01/23 08:31:02;;;;;;;16.67;9.80;;;0.60;99.90;;;0.25;100.00;99164.19;4957657;28;20055;-70
2023/01/23 08:33:33;;;;;;;26.10;15.95;;;0.70;99.90;;;0.19;100.00;99169.13;4956551;28;20770;-70
2023/01/23 08:36:01;;;;;;;16.20;9.60;;;0.70;99.90;;;0.24;100.00;99170.09;4941192;28;20059;-70
2023/01/23 08:38:29;;;;;;;16.88;10.00;;;0.80;99.90;;;0.14;100.00;99161.34;4944626;28;20433;-71
2023/01/23 08:40:59;;;;;;;16.77;9.45;;;0.80;99.90;;;0.33;100.00;99151.59;4958530;28;20077;-70
2023/01/23 08:43:26;;;;;;;14.98;9.20;;;0.80;99.90;;;0.26;100.00;99157.38;4974457;28;20054;-70
2023/01/23 08:45:56;;;;;;;15.02;8.88;;;0.80;99.90;;;0.34;100.00;99158.41;4963345;28;20050;-70
2023/01/23 08:48:25;;;;;;;18.00;10.48;;;0.80;99.90;;;0.18;100.00;99150.41;4963604;28;20070;-70
2023/01/23 08:51:00;;;;;;;14.80;9.25;;;0.80;99.90;;;0.17;100.00;99161.44;4951267;28;20126;-70
2023/01/23 08:53:29;;;;;;;14.70;8.65;;;0.80;99.90;;;0.36;100.00;99169.53;4962883;28;20070;-70
2023/01/23 08:56:02;;;;;;;16.00;8.90;;;0.80;99.90;;;0.23;100.00;99170.06;4966018;28;20085;-70
2023/01/23 08:58:30;;;;;;;14.95;9.68;;;0.80;99.90;;;0.19;100.00;99158.91;4926234;28;20047;-70
2023/01/23 09:00:57;;;;;;;16.20;9.13;;;0.80;99.90;;;0.16;100.00;99162.25;4950386;28;20492;-70
2023/01/23 09:03:27;;;;;;;16.58;9.07;;;0.70;99.90;;;0.07;100.00;99166.25;4959948;28;20109;-70
2023/01/23 09:05:54;;;;;;;16.17;10.20;;;0.70;99.90;;;0.09;100.00;99168.06;4945493;28;20059;-71
2023/01/23 09:08:21;;;;;;;16.08;9.38;;;0.70;99.90;;;0.09;100.00;99170.59;4961889;28;20059;-69
2023/01/23 09:10:48;;;;;;;15.45;8.82;;;;;;;0.31;100.00;99174.53;4963202;28;20054;-70
2023/01/23 09:13:18;;;;;;;12.88;8.45;;;0.80;99.90;;;0.34;100.00;99177.16;4960042;28;20218;-70
2023/01/23 09:15:45;;;;;;;16.10;9.40;;;0.90;99.90;;;0.25;100.00;99173.50;4934701;28;20068;-71
2023/01/23 09:18:12;;;;;;;15.00;8.68;;;0.80;99.90;;;0.10;100.00;99169.75;4977333;28;20137;-70
2023/01/23 09:20:40;;;;;;;15.02;9.10;;;0.70;99.90;;;0.18;100.00;99167.38;4945969;28;20141;-70
2023/01/23 09:23:07;;;;;;;15.65;8.05;;;0.80;99.90;;;0.27;100.00;99166.75;4964859;28;20050;-70
2023/01/23 09:25:34;;;;;;;13.18;8.23;;;0.80;99.90;;;0.24;100.00;99171.78;4944950;28;20129;-70
2023/01/23 09:28:01;;;;;;;15.20;8.63;;;0.90;99.90;;;0.42;100.00;99169.69;4960601;28;20066;-70
2023/01/23 09:30:28;;;;;;;16.83;9.18;;;0.90;99.90;;;0.31;100.00;99173.66;4945792;28;20429;-70
2023/01/23 09:32:55;;;;;;;16.13;9.88;;;0.90;99.90;;;0.25;100.00;99173.50;4961368;28;20055;-70
2023/01/23 09:35:23;;;;;;;15.07;9.30;;;0.90;99.90;;;0.23;100.00;99176.03;4961185;28;20141;-70
2023/01/23 09:37:59;;;;;;;13.50;8.38;;;0.80;99.90;;;0.30;100.00;99180.47;4962029;28;22073;-70
2023/01/23 09:40:44;;;;;;;11.25;7.00;;;0.90;99.90;;;0.35;100.00;99171.22;4946176;28;20047;-70
2023/01/23 09:43:29;;;;;;;12.93;8.18;;;1.10;99.90;;;0.63;100.00;99167.59;4972490;28;20072;-70
2023/01/23 09:46:17;;;;;;;12.27;8.50;;;1.10;99.90;;;0.43;100.00;99165.44;4960406;28;20063;-70
2023/01/23 09:49:27;;;;;;;14.02;8.90;;;1.00;99.90;;;0.61;100.00;99163.28;4976441;28;20051;-70
2023/01/23 09:52:02;;;;;;;14.15;8.23;;;1.20;99.90;;;0.76;100.00;99168.75;4952085;28;20069;-70
2023/01/23 09:54:45;;;;;;;15.13;9.25;;;1.30;99.90;;;0.72;100.00;99160.97;4971916;28;20057;-70
2023/01/23 09:57:37;;;;;;;12.73;8.20;;;1.30;99.90;;;0.64;100.00;99163.38;4960930;28;20058;-71
2023/01/23 10:00:09;;;;;;;14.77;9.00;;;1.40;99.90;;;0.78;100.00;99163.69;4975284;28;20043;-71
2023/01/23 10:02:36;;;;;;;13.40;8.98;;;1.40;99.90;;;0.87;100.00;99163.88;4934548;28;20047;-70
2023/01/23 10:05:04;;;;;;;16.20;8.98;;;1.70;99.90;;;0.49;100.00;99150.25;4950189;28;20047;-71
2023/01/23 10:08:05;;;;;;;15.95;10.15;;;1.40;99.90;;;0.61;100.00;99161.59;4948698;28;20058;-70
2023/01/23 10:10:57;;;;;;;15.07;9.30;;;1.50;99.90;;;0.52;100.00;99155.41;4958280;28;21131;-71
2023/01/23 10:13:53;;;;;;;12.10;7.85;;;1.50;99.90;;;0.48;100.00;99148.50;4949152;28;20138;-71
2023/01/23 10:16:50;;;;;;;15.15;8.48;;;1.30;99.90;;;0.26;100.00;99142.06;4957852;28;20047;-69
2023/01/23 10:19:41;;;;;;;13.80;8.63;;;1.10;99.90;;;0.49;100.00;99145.13;4950272;28;20105;-70
2023/01/23 10:22:43;;;;;;;13.38;8.80;;;1.30;99.90;;;0.15;100.00;99137.53;4964144;28;20134;-70
2023/01/23 10:25:19;;;;;;;12.85;8.23;;;1.00;99.90;;;0.44;100.00;99144.19;4940401;28;20113;-71
2023/01/23 10:27:49;;;;;;;17.80;8.90;;;1.20;99.90;;;0.24;100.00;99139.44;4945481;28;20058;-70
2023/01/23 10:30:37;;;;;;;13.45;8.57;;;1.10;99.90;;;0.41;100.00;99150.06;4947196;28;20046;-71
2023/01/23 10:33:15;;;;;;;13.82;7.95;;;1.10;99.90;;;0.72;100.00;99149.06;4961426;28;20133;-70
2023/01/23 10:35:57;;;;;;;15.95;10.20;;;1.40;99.90;;;0.48;100.00;99141.72;4945754;28;20057;-71
2023/01/23 10:38:33;;;;;;;14.20;9.02;;;1.30;99.90;;;0.56;100.00;99142.75;4930574;28;20055;-70